EJU3946 EDDM-LIMC
Flight info
| Callsign | EJU3946 |
|---|---|
| Flight time | 0h 49m |
| Altitude | 24000 |
| Route | MERSI5S/26L MERSI Y100 ATMAX Z999 KPT/N0414F230 Z999 BEMKI L607 XEBIX Y740 NATAG DCT LORLO DCT ATPED DCT LUSIL DCT EVRIP |
| Aircraft | A320/M-SDE3FGHIRWY/LB1 |
Departure
| Time | 2026-05-06 18:15 |
|---|---|
| Airport | Munich Airport (EDDM) |
Arrival
| Time | 2026-05-06 19:04 |
|---|---|
| Airport | Milan Malpensa International Airport (LIMC) |
| Time | Latitude | Longitude | Altitude | Speed | Heading |
|---|---|---|---|---|---|
| 2026-05-06 17:29 | 48.35278 | 11.78316 | 1486 ft | 0 kts | 83° |
| 2026-05-06 17:57 | 48.35277 | 11.78315 | 1480 ft | 2 kts | 83° |
| 2026-05-06 17:57 | 48.35274 | 11.78277 | 1480 ft | 4 kts | 79° |
| 2026-05-06 17:58 | 48.35268 | 11.78238 | 1485 ft | 4 kts | 74° |
| 2026-05-06 17:58 | 48.35260 | 11.78199 | 1485 ft | 4 kts | 69° |
| 2026-05-06 17:58 | 48.35250 | 11.78161 | 1485 ft | 4 kts | 64° |
| 2026-05-06 17:58 | 48.35237 | 11.78125 | 1485 ft | 4 kts | 59° |
| 2026-05-06 17:59 | 48.35223 | 11.78092 | 1485 ft | 4 kts | 54° |
| 2026-05-06 17:59 | 48.35207 | 11.78059 | 1485 ft | 4 kts | 56° |
| 2026-05-06 17:59 | 48.35197 | 11.78028 | 1485 ft | 3 kts | 83° |
| 2026-05-06 17:59 | 48.35197 | 11.78041 | 1485 ft | 3 kts | 85° |
| 2026-05-06 18:00 | 48.35197 | 11.78045 | 1485 ft | 0 kts | 83° |
| 2026-05-06 18:04 | 48.35197 | 11.78046 | 1485 ft | 0 kts | 83° |
| 2026-05-06 18:04 | 48.35202 | 11.78119 | 1485 ft | 13 kts | 88° |
| 2026-05-06 18:05 | 48.35229 | 11.78209 | 1485 ft | 9 kts | 355° |
| 2026-05-06 18:05 | 48.35328 | 11.78161 | 1485 ft | 20 kts | 347° |
| 2026-05-06 18:05 | 48.35346 | 11.78029 | 1485 ft | 15 kts | 264° |
| 2026-05-06 18:05 | 48.35334 | 11.77861 | 1485 ft | 18 kts | 263° |
| 2026-05-06 18:06 | 48.35240 | 11.77800 | 1485 ft | 18 kts | 172° |
| 2026-05-06 18:06 | 48.35108 | 11.77824 | 1485 ft | 20 kts | 173° |
| 2026-05-06 18:06 | 48.34971 | 11.77847 | 1485 ft | 18 kts | 173° |
| 2026-05-06 18:06 | 48.34892 | 11.77862 | 1485 ft | 10 kts | 173° |
| 2026-05-06 18:07 | 48.34866 | 11.77866 | 1485 ft | 0 kts | 173° |
| 2026-05-06 18:08 | 48.34840 | 11.77871 | 1485 ft | 10 kts | 173° |
| 2026-05-06 18:08 | 48.34769 | 11.77884 | 1485 ft | 11 kts | 173° |
| 2026-05-06 18:08 | 48.34696 | 11.77897 | 1485 ft | 11 kts | 171° |
| 2026-05-06 18:08 | 48.34670 | 11.77995 | 1485 ft | 13 kts | 82° |
| 2026-05-06 18:09 | 48.34683 | 11.78143 | 1485 ft | 16 kts | 83° |
| 2026-05-06 18:09 | 48.34698 | 11.78330 | 1485 ft | 22 kts | 83° |
| 2026-05-06 18:09 | 48.34716 | 11.78577 | 1485 ft | 24 kts | 83° |
| 2026-05-06 18:09 | 48.34735 | 11.78832 | 1485 ft | 22 kts | 84° |
| 2026-05-06 18:10 | 48.34754 | 11.79066 | 1485 ft | 20 kts | 83° |
| 2026-05-06 18:10 | 48.34769 | 11.79266 | 1485 ft | 16 kts | 83° |
| 2026-05-06 18:10 | 48.34779 | 11.79392 | 1485 ft | 4 kts | 83° |
| 2026-05-06 18:10 | 48.34783 | 11.79436 | 1485 ft | 4 kts | 83° |
| 2026-05-06 18:11 | 48.34786 | 11.79480 | 1485 ft | 4 kts | 83° |
| 2026-05-06 18:11 | 48.34778 | 11.79541 | 1485 ft | 7 kts | 141° |
| 2026-05-06 18:11 | 48.34715 | 11.79557 | 1485 ft | 11 kts | 174° |
| 2026-05-06 18:11 | 48.34637 | 11.79550 | 1485 ft | 9 kts | 202° |
| 2026-05-06 18:12 | 48.34587 | 11.79465 | 1485 ft | 13 kts | 233° |
| 2026-05-06 18:12 | 48.34537 | 11.79367 | 1485 ft | 9 kts | 233° |
| 2026-05-06 18:12 | 48.34506 | 11.79304 | 1485 ft | 6 kts | 233° |
| 2026-05-06 18:12 | 48.34494 | 11.79280 | 1485 ft | 0 kts | 233° |
| 2026-05-06 18:13 | 48.34486 | 11.79264 | 1485 ft | 9 kts | 233° |
| 2026-05-06 18:14 | 48.34428 | 11.79149 | 1485 ft | 13 kts | 232° |
| 2026-05-06 18:14 | 48.34376 | 11.79087 | 1485 ft | 5 kts | 242° |
| 2026-05-06 18:14 | 48.34371 | 11.79042 | 1485 ft | 6 kts | 264° |
| 2026-05-06 18:14 | 48.34347 | 11.78737 | 1485 ft | 65 kts | 263° |
| 2026-05-06 18:15 | 48.34268 | 11.77721 | 1485 ft | 128 kts | 263° |
| 2026-05-06 18:15 | 48.34147 | 11.76148 | 1619 ft | 164 kts | 263° |
| 2026-05-06 18:15 | 48.34020 | 11.74474 | 2360 ft | 160 kts | 263° |
| 2026-05-06 18:15 | 48.33934 | 11.73372 | 2839 ft | 160 kts | 263° |
| 2026-05-06 18:16 | 48.33802 | 11.71723 | 3329 ft | 172 kts | 262° |
| 2026-05-06 18:16 | 48.33652 | 11.69842 | 3693 ft | 189 kts | 263° |
| 2026-05-06 18:16 | 48.33492 | 11.67793 | 4012 ft | 210 kts | 263° |
| 2026-05-06 18:16 | 48.33315 | 11.65503 | 4412 ft | 231 kts | 263° |
| 2026-05-06 18:17 | 48.33130 | 11.63026 | 4924 ft | 249 kts | 263° |
| 2026-05-06 18:17 | 48.32952 | 11.60328 | 5371 ft | 269 kts | 264° |
| 2026-05-06 18:17 | 48.32691 | 11.57484 | 6057 ft | 277 kts | 252° |
| 2026-05-06 18:17 | 48.31744 | 11.54966 | 6861 ft | 281 kts | 227° |
| 2026-05-06 18:18 | 48.30368 | 11.52869 | 7660 ft | 284 kts | 225° |
| 2026-05-06 18:18 | 48.28965 | 11.50761 | 8425 ft | 287 kts | 225° |
| 2026-05-06 18:18 | 48.27548 | 11.48624 | 9156 ft | 291 kts | 225° |
| 2026-05-06 18:18 | 48.26116 | 11.46451 | 9862 ft | 295 kts | 225° |
| 2026-05-06 18:19 | 48.24656 | 11.44230 | 10363 ft | 307 kts | 225° |
| 2026-05-06 18:19 | 48.23102 | 11.41871 | 10506 ft | 329 kts | 225° |
| 2026-05-06 18:19 | 48.21441 | 11.39346 | 10634 ft | 350 kts | 225° |
| 2026-05-06 18:19 | 48.19693 | 11.36689 | 10910 ft | 363 kts | 225° |
| 2026-05-06 18:20 | 48.17929 | 11.34012 | 11400 ft | 368 kts | 225° |
| 2026-05-06 18:20 | 48.16118 | 11.31267 | 11928 ft | 372 kts | 225° |
| 2026-05-06 18:20 | 48.14290 | 11.28497 | 12446 ft | 375 kts | 225° |
| 2026-05-06 18:20 | 48.12447 | 11.25704 | 12946 ft | 379 kts | 225° |
| 2026-05-06 18:21 | 48.10588 | 11.22890 | 13429 ft | 382 kts | 225° |
| 2026-05-06 18:21 | 48.08714 | 11.20059 | 13891 ft | 385 kts | 225° |
| 2026-05-06 18:21 | 48.06823 | 11.17204 | 14333 ft | 388 kts | 225° |
| 2026-05-06 18:21 | 48.04917 | 11.14330 | 14753 ft | 391 kts | 225° |
| 2026-05-06 18:22 | 48.02995 | 11.11439 | 15153 ft | 393 kts | 225° |
| 2026-05-06 18:22 | 48.01061 | 11.08529 | 15534 ft | 396 kts | 225° |
| 2026-05-06 18:22 | 47.99257 | 11.05405 | 15882 ft | 399 kts | 235° |
| 2026-05-06 18:22 | 47.97908 | 11.01783 | 16225 ft | 401 kts | 247° |
| 2026-05-06 18:23 | 47.97083 | 10.97930 | 16543 ft | 404 kts | 255° |
| 2026-05-06 18:23 | 47.96350 | 10.93765 | 16870 ft | 406 kts | 255° |
| 2026-05-06 18:23 | 47.95625 | 10.89684 | 17172 ft | 408 kts | 255° |
| 2026-05-06 18:23 | 47.94886 | 10.85584 | 17462 ft | 410 kts | 255° |
| 2026-05-06 18:24 | 47.94138 | 10.81460 | 17736 ft | 412 kts | 255° |
| 2026-05-06 18:24 | 47.93359 | 10.77346 | 17990 ft | 414 kts | 251° |
| 2026-05-06 18:24 | 47.92186 | 10.73418 | 18229 ft | 416 kts | 240° |
| 2026-05-06 18:24 | 47.90603 | 10.69807 | 18459 ft | 417 kts | 235° |
| 2026-05-06 18:25 | 47.88959 | 10.66226 | 18692 ft | 419 kts | 235° |
| 2026-05-06 18:25 | 47.87310 | 10.62636 | 18918 ft | 421 kts | 236° |
| 2026-05-06 18:25 | 47.85655 | 10.59033 | 19129 ft | 423 kts | 236° |
| 2026-05-06 18:25 | 47.83993 | 10.55421 | 19339 ft | 424 kts | 235° |
| 2026-05-06 18:26 | 47.82323 | 10.51791 | 19542 ft | 425 kts | 236° |
| 2026-05-06 18:26 | 47.80649 | 10.48150 | 19731 ft | 427 kts | 236° |
| 2026-05-06 18:26 | 47.78968 | 10.44497 | 19912 ft | 428 kts | 236° |
| 2026-05-06 18:26 | 47.77161 | 10.40983 | 20079 ft | 429 kts | 225° |
| 2026-05-06 18:27 | 47.74810 | 10.38253 | 20241 ft | 431 kts | 209° |
| 2026-05-06 18:27 | 47.72035 | 10.36603 | 20394 ft | 432 kts | 193° |
| 2026-05-06 18:27 | 47.69048 | 10.36186 | 20536 ft | 433 kts | 176° |
| 2026-05-06 18:27 | 47.66061 | 10.36836 | 20672 ft | 435 kts | 170° |
| 2026-05-06 18:28 | 47.63079 | 10.37635 | 20811 ft | 436 kts | 170° |
| 2026-05-06 18:28 | 47.60129 | 10.38435 | 20947 ft | 437 kts | 170° |
| 2026-05-06 18:28 | 47.57133 | 10.39251 | 21083 ft | 438 kts | 170° |
| 2026-05-06 18:28 | 47.54132 | 10.40066 | 21216 ft | 439 kts | 170° |
| 2026-05-06 18:29 | 47.51121 | 10.40874 | 21343 ft | 440 kts | 170° |
| 2026-05-06 18:29 | 47.48105 | 10.41676 | 21470 ft | 441 kts | 170° |
| 2026-05-06 18:29 | 47.45080 | 10.42479 | 21594 ft | 442 kts | 170° |
| 2026-05-06 18:29 | 47.42051 | 10.43282 | 21720 ft | 442 kts | 170° |
| 2026-05-06 18:30 | 47.39017 | 10.44087 | 21844 ft | 443 kts | 170° |
| 2026-05-06 18:30 | 47.36970 | 10.44629 | 21928 ft | 443 kts | 170° |
| 2026-05-06 18:30 | 47.32946 | 10.45697 | 22094 ft | 444 kts | 170° |
| 2026-05-06 18:30 | 47.30893 | 10.46241 | 22178 ft | 444 kts | 170° |
| 2026-05-06 18:31 | 47.27852 | 10.47045 | 22303 ft | 444 kts | 170° |
| 2026-05-06 18:31 | 47.24848 | 10.47839 | 22425 ft | 444 kts | 170° |
| 2026-05-06 18:31 | 47.21803 | 10.48641 | 22550 ft | 445 kts | 170° |
| 2026-05-06 18:31 | 47.18754 | 10.49443 | 22674 ft | 445 kts | 170° |
| 2026-05-06 18:32 | 47.15711 | 10.50243 | 22799 ft | 445 kts | 170° |
| 2026-05-06 18:32 | 47.12671 | 10.51042 | 22954 ft | 444 kts | 170° |
| 2026-05-06 18:32 | 47.09624 | 10.51840 | 23009 ft | 446 kts | 170° |
| 2026-05-06 18:32 | 47.06559 | 10.52652 | 23009 ft | 449 kts | 169° |
| 2026-05-06 18:33 | 47.03541 | 10.53850 | 23011 ft | 451 kts | 163° |
| 2026-05-06 18:33 | 47.00536 | 10.55221 | 23010 ft | 454 kts | 163° |
| 2026-05-06 18:33 | 46.97512 | 10.56593 | 23009 ft | 456 kts | 163° |
| 2026-05-06 18:33 | 46.94475 | 10.57964 | 23009 ft | 458 kts | 163° |
| 2026-05-06 18:34 | 46.91421 | 10.59339 | 23009 ft | 460 kts | 163° |
| 2026-05-06 18:34 | 46.88354 | 10.60722 | 23009 ft | 462 kts | 163° |
| 2026-05-06 18:34 | 46.85275 | 10.62110 | 23009 ft | 464 kts | 163° |
| 2026-05-06 18:34 | 46.82184 | 10.63498 | 23009 ft | 465 kts | 163° |
| 2026-05-06 18:35 | 46.79087 | 10.64886 | 23009 ft | 467 kts | 163° |
| 2026-05-06 18:35 | 46.75955 | 10.66142 | 23006 ft | 468 kts | 169° |
| 2026-05-06 18:35 | 46.72721 | 10.66660 | 23010 ft | 468 kts | 179° |
| 2026-05-06 18:35 | 46.69472 | 10.66345 | 23010 ft | 469 kts | 189° |
| 2026-05-06 18:36 | 46.66304 | 10.65216 | 23011 ft | 470 kts | 197° |
| 2026-05-06 18:36 | 46.63174 | 10.63824 | 23009 ft | 471 kts | 197° |
| 2026-05-06 18:36 | 46.60037 | 10.62440 | 23009 ft | 472 kts | 197° |
| 2026-05-06 18:36 | 46.56894 | 10.61060 | 23009 ft | 472 kts | 197° |
| 2026-05-06 18:37 | 46.53742 | 10.59684 | 23009 ft | 473 kts | 197° |
| 2026-05-06 18:37 | 46.50585 | 10.58307 | 23008 ft | 473 kts | 197° |
| 2026-05-06 18:37 | 46.47431 | 10.56932 | 23009 ft | 473 kts | 197° |
| 2026-05-06 18:37 | 46.44277 | 10.55555 | 23009 ft | 473 kts | 197° |
| 2026-05-06 18:38 | 46.41165 | 10.54016 | 23001 ft | 473 kts | 205° |
| 2026-05-06 18:38 | 46.38363 | 10.51536 | 23002 ft | 473 kts | 218° |
| 2026-05-06 18:38 | 46.35803 | 10.48553 | 23004 ft | 473 kts | 219° |
| 2026-05-06 18:38 | 46.33253 | 10.45552 | 23004 ft | 473 kts | 219° |
| 2026-05-06 18:39 | 46.30706 | 10.42546 | 23003 ft | 473 kts | 219° |
| 2026-05-06 18:39 | 46.28193 | 10.39582 | 23003 ft | 473 kts | 219° |
| 2026-05-06 18:39 | 46.25642 | 10.36584 | 23002 ft | 473 kts | 219° |
| 2026-05-06 18:40 | 46.20575 | 10.30642 | 22538 ft | 465 kts | 219° |
| 2026-05-06 18:40 | 46.18071 | 10.27708 | 22289 ft | 463 kts | 219° |
| 2026-05-06 18:40 | 46.15577 | 10.24792 | 22038 ft | 460 kts | 219° |
| 2026-05-06 18:40 | 46.13095 | 10.21895 | 21787 ft | 458 kts | 219° |
| 2026-05-06 18:41 | 46.10620 | 10.19013 | 21537 ft | 456 kts | 219° |
| 2026-05-06 18:41 | 46.08157 | 10.16149 | 21287 ft | 454 kts | 219° |
| 2026-05-06 18:41 | 46.05816 | 10.13124 | 21035 ft | 452 kts | 226° |
| 2026-05-06 18:41 | 46.03848 | 10.09614 | 20785 ft | 450 kts | 236° |
| 2026-05-06 18:42 | 46.02298 | 10.05734 | 20376 ft | 444 kts | 244° |
| 2026-05-06 18:42 | 46.00962 | 10.01762 | 19835 ft | 437 kts | 244° |
| 2026-05-06 18:42 | 45.99660 | 9.97870 | 19484 ft | 426 kts | 244° |
| 2026-05-06 18:42 | 45.98393 | 9.94084 | 19133 ft | 415 kts | 244° |
| 2026-05-06 18:43 | 45.97156 | 9.90394 | 18783 ft | 405 kts | 244° |
| 2026-05-06 18:43 | 45.95941 | 9.86793 | 18433 ft | 396 kts | 244° |
| 2026-05-06 18:43 | 45.94745 | 9.83265 | 18083 ft | 388 kts | 244° |
| 2026-05-06 18:43 | 45.93574 | 9.79820 | 17734 ft | 381 kts | 244° |
| 2026-05-06 18:44 | 45.92420 | 9.76426 | 17383 ft | 374 kts | 244° |
| 2026-05-06 18:44 | 45.91289 | 9.73093 | 17033 ft | 368 kts | 244° |
| 2026-05-06 18:44 | 45.90175 | 9.69813 | 16683 ft | 363 kts | 244° |
| 2026-05-06 18:44 | 45.89077 | 9.66586 | 16333 ft | 357 kts | 244° |
| 2026-05-06 18:45 | 45.87990 | 9.63405 | 15983 ft | 353 kts | 244° |
| 2026-05-06 18:45 | 45.86912 | 9.60265 | 15632 ft | 348 kts | 244° |
| 2026-05-06 18:45 | 45.85849 | 9.57169 | 15282 ft | 344 kts | 244° |
| 2026-05-06 18:45 | 45.84796 | 9.54103 | 14932 ft | 341 kts | 244° |
| 2026-05-06 18:46 | 45.83755 | 9.51071 | 14635 ft | 336 kts | 244° |
| 2026-05-06 18:46 | 45.82735 | 9.48094 | 14367 ft | 330 kts | 244° |
| 2026-05-06 18:46 | 45.81729 | 9.45156 | 14081 ft | 326 kts | 244° |
| 2026-05-06 18:46 | 45.80737 | 9.42269 | 13879 ft | 320 kts | 243° |
| 2026-05-06 18:47 | 45.79757 | 9.39422 | 13632 ft | 317 kts | 243° |
| 2026-05-06 18:47 | 45.78782 | 9.36598 | 13411 ft | 315 kts | 243° |
| 2026-05-06 18:47 | 45.77813 | 9.33789 | 13247 ft | 315 kts | 243° |
| 2026-05-06 18:47 | 45.76844 | 9.30982 | 12917 ft | 314 kts | 243° |
| 2026-05-06 18:48 | 45.75893 | 9.28229 | 12571 ft | 312 kts | 243° |
| 2026-05-06 18:48 | 45.74933 | 9.25455 | 12220 ft | 310 kts | 243° |
| 2026-05-06 18:48 | 45.73965 | 9.22663 | 11865 ft | 308 kts | 243° |
| 2026-05-06 18:48 | 45.73017 | 9.19927 | 11514 ft | 306 kts | 243° |
| 2026-05-06 18:49 | 45.72084 | 9.17245 | 11168 ft | 304 kts | 243° |
| 2026-05-06 18:49 | 45.71142 | 9.14549 | 10817 ft | 302 kts | 243° |
| 2026-05-06 18:49 | 45.70209 | 9.11868 | 10467 ft | 300 kts | 243° |
| 2026-05-06 18:49 | 45.69282 | 9.09202 | 10120 ft | 298 kts | 243° |
| 2026-05-06 18:50 | 45.68353 | 9.06537 | 9645 ft | 300 kts | 243° |
| 2026-05-06 18:50 | 45.67418 | 9.03860 | 9235 ft | 299 kts | 243° |
| 2026-05-06 18:50 | 45.66501 | 9.01232 | 9006 ft | 292 kts | 243° |
| 2026-05-06 18:50 | 45.65604 | 8.98660 | 8765 ft | 282 kts | 243° |
| 2026-05-06 18:51 | 45.64752 | 8.96223 | 8478 ft | 268 kts | 243° |
| 2026-05-06 18:51 | 45.63925 | 8.93872 | 7976 ft | 263 kts | 243° |
| 2026-05-06 18:51 | 45.63092 | 8.91567 | 7430 ft | 260 kts | 238° |
| 2026-05-06 18:51 | 45.61882 | 8.89693 | 6926 ft | 256 kts | 214° |
| 2026-05-06 18:52 | 45.60268 | 8.88656 | 6526 ft | 256 kts | 192° |
| 2026-05-06 18:52 | 45.58506 | 8.88580 | 6170 ft | 254 kts | 171° |
| 2026-05-06 18:52 | 45.56769 | 8.89040 | 5793 ft | 254 kts | 169° |
| 2026-05-06 18:52 | 45.55037 | 8.89512 | 5434 ft | 253 kts | 169° |
| 2026-05-06 18:53 | 45.53315 | 8.89985 | 5080 ft | 251 kts | 169° |
| 2026-05-06 18:53 | 45.51606 | 8.90453 | 4728 ft | 250 kts | 169° |
| 2026-05-06 18:53 | 45.49907 | 8.90916 | 4378 ft | 248 kts | 169° |
| 2026-05-06 18:53 | 45.48221 | 8.91376 | 4157 ft | 246 kts | 169° |
| 2026-05-06 18:54 | 45.46540 | 8.91835 | 4149 ft | 247 kts | 169° |
| 2026-05-06 18:54 | 45.44852 | 8.92296 | 4150 ft | 247 kts | 169° |
| 2026-05-06 18:54 | 45.43160 | 8.92756 | 4151 ft | 247 kts | 169° |
| 2026-05-06 18:54 | 45.41430 | 8.93222 | 4146 ft | 254 kts | 169° |
| 2026-05-06 18:55 | 45.39773 | 8.93669 | 4145 ft | 237 kts | 169° |
| 2026-05-06 18:55 | 45.38175 | 8.94100 | 4149 ft | 232 kts | 169° |
| 2026-05-06 18:55 | 45.36589 | 8.94529 | 4150 ft | 232 kts | 169° |
| 2026-05-06 18:55 | 45.35004 | 8.94957 | 4151 ft | 232 kts | 169° |
| 2026-05-06 18:56 | 45.33411 | 8.95173 | 4147 ft | 229 kts | 189° |
| 2026-05-06 18:56 | 45.32030 | 8.94298 | 4145 ft | 213 kts | 224° |
| 2026-05-06 18:56 | 45.31306 | 8.92558 | 4152 ft | 205 kts | 256° |
| 2026-05-06 18:56 | 45.31061 | 8.90559 | 4154 ft | 205 kts | 263° |
| 2026-05-06 18:57 | 45.30940 | 8.88540 | 4147 ft | 206 kts | 274° |
| 2026-05-06 18:57 | 45.31426 | 8.86673 | 3987 ft | 204 kts | 306° |
| 2026-05-06 18:57 | 45.32348 | 8.85136 | 3729 ft | 205 kts | 313° |
| 2026-05-06 18:57 | 45.33335 | 8.83676 | 3510 ft | 204 kts | 314° |
| 2026-05-06 18:58 | 45.34326 | 8.82237 | 3290 ft | 203 kts | 314° |
| 2026-05-06 18:58 | 45.35452 | 8.81050 | 3170 ft | 203 kts | 336° |
| 2026-05-06 18:58 | 45.36819 | 8.80550 | 3155 ft | 204 kts | 348° |
| 2026-05-06 18:58 | 45.38216 | 8.80169 | 3152 ft | 204 kts | 348° |
| 2026-05-06 18:59 | 45.39611 | 8.79787 | 3151 ft | 204 kts | 348° |
| 2026-05-06 18:59 | 45.40993 | 8.79409 | 3172 ft | 198 kts | 348° |
| 2026-05-06 18:59 | 45.42334 | 8.79041 | 3156 ft | 195 kts | 348° |
| 2026-05-06 18:59 | 45.43661 | 8.78677 | 3149 ft | 194 kts | 348° |
| 2026-05-06 19:00 | 45.44983 | 8.78315 | 3148 ft | 193 kts | 348° |
| 2026-05-06 19:00 | 45.46305 | 8.77952 | 3148 ft | 193 kts | 348° |
| 2026-05-06 19:00 | 45.47624 | 8.77590 | 3150 ft | 192 kts | 348° |
| 2026-05-06 19:00 | 45.48482 | 8.77355 | 3144 ft | 188 kts | 348° |
| 2026-05-06 19:01 | 45.50180 | 8.76888 | 2943 ft | 184 kts | 348° |
| 2026-05-06 19:01 | 45.51426 | 8.76546 | 2722 ft | 181 kts | 348° |
| 2026-05-06 19:01 | 45.52632 | 8.76214 | 2506 ft | 171 kts | 348° |
| 2026-05-06 19:01 | 45.53743 | 8.75909 | 2283 ft | 156 kts | 348° |
| 2026-05-06 19:02 | 45.54788 | 8.75621 | 2077 ft | 151 kts | 348° |
| 2026-05-06 19:02 | 45.55807 | 8.75340 | 1879 ft | 148 kts | 348° |
| 2026-05-06 19:02 | 45.56814 | 8.75063 | 1684 ft | 147 kts | 348° |
| 2026-05-06 19:02 | 45.57816 | 8.74787 | 1493 ft | 146 kts | 348° |
| 2026-05-06 19:03 | 45.58816 | 8.74520 | 1305 ft | 146 kts | 349° |
| 2026-05-06 19:03 | 45.59810 | 8.74248 | 1123 ft | 145 kts | 348° |
| 2026-05-06 19:03 | 45.60801 | 8.73972 | 944 ft | 145 kts | 348° |
| 2026-05-06 19:03 | 45.61788 | 8.73697 | 764 ft | 144 kts | 349° |
| 2026-05-06 19:04 | 45.62696 | 8.73452 | 739 ft | 114 kts | 346° |
| 2026-05-06 19:04 | 45.63314 | 8.73268 | 736 ft | 75 kts | 348° |
| 2026-05-06 19:04 | 45.63618 | 8.73159 | 739 ft | 28 kts | 333° |
| 2026-05-06 19:04 | 45.63740 | 8.73051 | 738 ft | 11 kts | 321° |
| 2026-05-06 19:05 | 45.63751 | 8.73038 | 738 ft | 4 kts | 320° |
| 2026-05-06 19:05 | 45.63770 | 8.73006 | 737 ft | 5 kts | 307° |
| 2026-05-06 19:05 | 45.63812 | 8.72920 | 736 ft | 15 kts | 303° |
| 2026-05-06 19:05 | 45.63840 | 8.72863 | 736 ft | 0 kts | 307° |
| 2026-05-06 19:08 | 45.63884 | 8.72808 | 736 ft | 15 kts | 331° |
| 2026-05-06 19:09 | 45.63990 | 8.72774 | 736 ft | 16 kts | 349° |
| 2026-05-06 19:09 | 45.64097 | 8.72744 | 736 ft | 16 kts | 350° |
| 2026-05-06 19:09 | 45.64212 | 8.72714 | 736 ft | 18 kts | 349° |
| 2026-05-06 19:09 | 45.64342 | 8.72679 | 736 ft | 20 kts | 353° |
| 2026-05-06 19:10 | 45.64463 | 8.72645 | 736 ft | 15 kts | 308° |
| 2026-05-06 19:10 | 45.64456 | 8.72493 | 736 ft | 17 kts | 259° |
| 2026-05-06 19:10 | 45.64432 | 8.72308 | 736 ft | 20 kts | 259° |
| 2026-05-06 19:10 | 45.64449 | 8.72151 | 736 ft | 17 kts | 311° |
| 2026-05-06 19:11 | 45.64569 | 8.72100 | 736 ft | 20 kts | 348° |
| 2026-05-06 19:11 | 45.64631 | 8.72123 | 736 ft | 8 kts | 87° |
| 2026-05-06 19:11 | 45.64640 | 8.72171 | 736 ft | 2 kts | 75° |
| 2026-05-06 19:11 | 45.64641 | 8.72179 | 736 ft | 0 kts | 75° |